createdAt,value
2024-01-12T00:00:21.020Z,103089.47
2024-01-12T00:02:51.077Z,103096.47
2024-01-12T00:05:23.723Z,103096.09
2024-01-12T00:07:53.669Z,103095.06
2024-01-12T00:10:23.594Z,103105.16
2024-01-12T00:12:53.792Z,103112.19
2024-01-12T00:15:23.853Z,103109.31
2024-01-12T00:17:53.808Z,103109.31
2024-01-12T00:20:26.455Z,103095.28
2024-01-12T00:22:57.630Z,103096.53
2024-01-12T00:25:27.566Z,103096.53
2024-01-12T00:27:57.484Z,103104.38
2024-01-12T00:30:27.341Z,103098.19
2024-01-12T00:32:57.929Z,103107.25
2024-01-12T00:35:30.564Z,103098.59
2024-01-12T00:38:00.599Z,103103.13
2024-01-12T00:40:30.458Z,103103.31
2024-01-12T00:43:00.295Z,103100.63
2024-01-12T00:45:30.237Z,103086.00
2024-01-12T00:48:00.308Z,103078.75
2024-01-12T00:50:32.852Z,103071.75
2024-01-12T00:53:17.567Z,103071.34
2024-01-12T00:55:47.565Z,103067.66
2024-01-12T00:58:17.364Z,103079.00
2024-01-12T01:00:47.343Z,103081.28
2024-01-12T01:03:17.281Z,103081.47
2024-01-12T01:05:50.389Z,103080.41
2024-01-12T01:08:20.413Z,103083.06
2024-01-12T01:10:50.313Z,103086.97
2024-01-12T01:13:20.179Z,103094.78
2024-01-12T01:15:50.279Z,103091.53
2024-01-12T01:18:20.278Z,103092.78
2024-01-12T01:20:52.867Z,103093.84
2024-01-12T01:23:22.778Z,103095.94
2024-01-12T01:25:52.744Z,103089.53
2024-01-12T01:28:23.212Z,103108.28
2024-01-12T01:30:53.107Z,103103.53
2024-01-12T01:33:23.119Z,103099.00
2024-01-12T01:35:55.750Z,103103.94
2024-01-12T01:38:25.812Z,103103.47
2024-01-12T01:40:55.757Z,103101.84
2024-01-12T01:43:25.639Z,103109.47
2024-01-12T01:45:56.047Z,103107.63
2024-01-12T01:48:26.820Z,103108.88
2024-01-12T01:50:59.658Z,103109.31
2024-01-12T01:53:29.960Z,103109.72
2024-01-12T01:56:00.052Z,103111.19
2024-01-12T01:58:29.968Z,103108.09
2024-01-12T02:01:00.644Z,103100.06
2024-01-12T02:03:30.895Z,103101.09
2024-01-12T02:06:04.132Z,103095.28
2024-01-12T02:08:34.181Z,103089.91
2024-01-12T02:11:04.036Z,103093.19
2024-01-12T02:13:33.865Z,103091.72
2024-01-12T02:16:06.789Z,103079.16
2024-01-12T02:18:38.565Z,103090.28
2024-01-12T02:21:11.290Z,103082.72
2024-01-12T02:23:41.152Z,103091.97
2024-01-12T02:26:11.123Z,103100.00
2024-01-12T02:28:41.048Z,103103.50
2024-01-12T02:31:11.137Z,103095.28
2024-01-12T02:33:41.013Z,103101.06
2024-01-12T02:36:13.688Z,103093.44
2024-01-12T02:38:44.861Z,103094.47
2024-01-12T02:41:14.819Z,103095.31
2024-01-12T02:43:44.748Z,103093.28
2024-01-12T02:46:14.717Z,103094.09
2024-01-12T02:48:44.688Z,103092.03
2024-01-12T02:51:17.180Z,103098.22
2024-01-12T02:53:47.143Z,103104.03
2024-01-12T02:56:17.108Z,103097.63
2024-01-12T02:58:46.902Z,103085.06
2024-01-12T03:01:16.678Z,103089.59
2024-01-12T03:03:46.545Z,103094.13
2024-01-12T03:06:21.947Z,103094.97
2024-01-12T03:08:51.875Z,103091.25
2024-01-12T03:11:21.845Z,103094.53
2024-01-12T03:13:51.727Z,103090.00
2024-01-12T03:16:23.051Z,103091.66
2024-01-12T03:18:53.507Z,103088.97
2024-01-12T03:21:26.173Z,103094.78
2024-01-12T03:24:00.614Z,103094.97
2024-01-12T03:26:30.624Z,103084.88
2024-01-12T03:29:00.577Z,103082.59
2024-01-12T03:31:30.418Z,103088.94
2024-01-12T03:34:00.454Z,103074.56
2024-01-12T03:36:33.144Z,103069.81
2024-01-12T03:39:03.183Z,103067.75
2024-01-12T03:41:33.220Z,103067.56
2024-01-12T03:44:03.243Z,103069.03
2024-01-12T03:46:33.085Z,103056.22
2024-01-12T03:49:03.076Z,103058.50
2024-01-12T03:51:40.365Z,103061.16
2024-01-12T03:54:10.194Z,103059.09
2024-01-12T03:56:40.190Z,103050.88
2024-01-12T03:59:10.028Z,103051.69
2024-01-12T04:01:41.169Z,103065.69
2024-01-12T04:04:11.115Z,103044.25
2024-01-12T04:06:44.068Z,103052.94
2024-01-12T04:09:14.882Z,103054.59
2024-01-12T04:11:44.812Z,103066.97
2024-01-12T04:14:14.659Z,103065.94
2024-01-12T04:16:44.580Z,103064.50
2024-01-12T04:19:14.512Z,103068.38
2024-01-12T04:21:47.088Z,103063.00
2024-01-12T04:24:16.921Z,103064.88
2024-01-12T04:26:46.925Z,103054.97
2024-01-12T04:29:16.951Z,103051.47
2024-01-12T04:31:47.300Z,103053.97
2024-01-12T04:34:17.414Z,103049.25
2024-01-12T04:36:50.478Z,103051.72
2024-01-12T04:39:20.413Z,103050.47
2024-01-12T04:41:50.502Z,103042.25
2024-01-12T04:44:20.906Z,103045.75
2024-01-12T04:46:50.809Z,103027.00
2024-01-12T04:49:20.742Z,103036.91
2024-01-12T04:51:53.256Z,103038.75
2024-01-12T04:54:23.167Z,103036.47
2024-01-12T04:56:53.069Z,103031.09
2024-01-12T04:59:23.145Z,103023.28
2024-01-12T05:01:53.159Z,103028.22
2024-01-12T05:04:23.148Z,103014.63
2024-01-12T05:06:55.626Z,103015.25
2024-01-12T05:09:25.588Z,103015.88
2024-01-12T05:11:55.471Z,103015.88
2024-01-12T05:14:25.398Z,103029.25
2024-01-12T05:16:55.393Z,103026.59
2024-01-12T05:19:25.345Z,103032.75
2024-01-12T05:21:57.899Z,103048.84
2024-01-12T05:24:28.335Z,103043.06
2024-01-12T05:26:58.299Z,103040.19
2024-01-12T05:29:28.254Z,103044.31
2024-01-12T05:31:58.143Z,103056.66
2024-01-12T05:34:28.018Z,103060.22
2024-01-12T05:37:00.576Z,103055.47
2024-01-12T05:39:30.398Z,103050.94
2024-01-12T05:42:00.395Z,103053.00
2024-01-12T05:44:30.945Z,103045.94
2024-01-12T05:47:00.813Z,103053.00
2024-01-12T05:49:30.740Z,103053.00
2024-01-12T05:52:03.298Z,103058.34
2024-01-12T05:54:33.229Z,103058.72
2024-01-12T05:57:03.181Z,103053.78
2024-01-12T05:59:34.453Z,103050.09
2024-01-12T06:02:04.890Z,103050.47
2024-01-12T06:04:34.892Z,103048.81
2024-01-12T06:07:07.491Z,103052.53
2024-01-12T06:09:37.318Z,103064.69
2024-01-12T06:12:08.038Z,103067.75
2024-01-12T06:14:38.126Z,103063.00
2024-01-12T06:17:09.411Z,103062.84
2024-01-12T06:19:39.402Z,103058.31
2024-01-12T06:22:12.006Z,103063.25
2024-01-12T06:24:42.233Z,103062.44
2024-01-12T06:27:12.220Z,103071.09
2024-01-12T06:29:42.193Z,103063.47
2024-01-12T06:32:14.223Z,103057.50
2024-01-12T06:34:44.362Z,103057.50
2024-01-12T06:37:16.862Z,103049.47
2024-01-12T06:39:47.090Z,103051.72
2024-01-12T06:42:16.869Z,103055.22
2024-01-12T06:44:46.796Z,103046.97
2024-01-12T06:47:17.212Z,103056.25
2024-01-12T06:49:47.590Z,103050.28
2024-01-12T06:52:20.487Z,103042.22
2024-01-12T06:54:51.852Z,103036.47
2024-01-12T06:57:22.127Z,103039.75
2024-01-12T06:59:52.036Z,103045.13
2024-01-12T07:02:22.481Z,103043.47
2024-01-12T07:04:52.815Z,103035.22
2024-01-12T07:07:25.497Z,103039.31
2024-01-12T07:09:55.404Z,103044.06
2024-01-12T07:12:27.066Z,103035.59
2024-01-12T07:14:57.155Z,103036.84
2024-01-12T07:17:27.364Z,103031.06
2024-01-12T07:19:57.273Z,103028.59
2024-01-12T07:22:29.946Z,103035.22
2024-01-12T07:24:59.830Z,103032.72
2024-01-12T07:27:29.654Z,103033.56
2024-01-12T07:29:59.648Z,103043.88
2024-01-12T07:32:29.739Z,103038.09
2024-01-12T07:34:59.721Z,103038.94
2024-01-12T07:37:32.272Z,103044.72
2024-01-12T07:40:02.359Z,103050.69
2024-01-12T07:42:32.202Z,103044.13
2024-01-12T07:45:02.216Z,103052.16
2024-01-12T07:47:32.154Z,103053.59
2024-01-12T07:50:02.139Z,103052.16
2024-01-12T07:52:34.746Z,103054.84
2024-01-12T07:55:04.658Z,103060.84
2024-01-12T07:57:34.985Z,103062.47
2024-01-12T08:00:04.999Z,103065.78
2024-01-12T08:02:34.927Z,103060.41
2024-01-12T08:05:05.672Z,103070.09
2024-01-12T08:07:39.354Z,103065.38
2024-01-12T08:10:10.224Z,103064.97
2024-01-12T08:12:40.072Z,103069.50
2024-01-12T08:15:11.243Z,103075.69
2024-01-12T08:17:41.659Z,103075.69
2024-01-12T08:20:12.519Z,103070.34
2024-01-12T08:22:44.931Z,103064.97
2024-01-12T08:25:14.787Z,103066.00
2024-01-12T08:27:44.633Z,103071.38
2024-01-12T08:30:14.882Z,103069.06
2024-01-12T08:32:45.767Z,103071.75
2024-01-12T08:35:15.992Z,103074.84
2024-01-12T08:37:48.448Z,103066.38
2024-01-12T08:40:18.478Z,103067.81
2024-01-12T08:42:48.395Z,103059.16
2024-01-12T08:45:18.331Z,103066.56
2024-01-12T08:47:48.230Z,103071.91
2024-01-12T08:50:18.285Z,103072.75
2024-01-12T08:52:51.106Z,103091.72
2024-01-12T08:55:20.901Z,103072.13
2024-01-12T08:57:52.082Z,103058.72
2024-01-12T09:00:22.989Z,103053.81
2024-01-12T09:02:53.123Z,103063.91
2024-01-12T09:05:23.704Z,103069.50
2024-01-12T09:07:56.316Z,103068.25
2024-01-12T09:10:26.144Z,103068.69
2024-01-12T09:12:56.201Z,103073.84
2024-01-12T09:15:26.185Z,103071.97
2024-01-12T09:17:56.083Z,103064.75
2024-01-12T09:20:26.011Z,103057.53
2024-01-12T09:22:58.520Z,103049.31
2024-01-12T09:25:28.630Z,103058.38
2024-01-12T09:27:59.661Z,103050.53
2024-01-12T09:30:29.511Z,103045.19
2024-01-12T09:32:59.548Z,103056.50
2024-01-12T09:35:29.618Z,103053.44
2024-01-12T09:38:02.200Z,103057.97
2024-01-12T09:40:32.150Z,103066.03
2024-01-12T09:43:04.319Z,103071.16
2024-01-12T09:45:39.187Z,103073.03
2024-01-12T09:48:11.865Z,103074.88
2024-01-12T09:50:43.209Z,103082.94
2024-01-12T09:53:15.728Z,103081.88
2024-01-12T09:55:45.831Z,103079.00
2024-01-12T09:58:17.131Z,103072.44
2024-01-12T10:00:48.775Z,103078.63
2024-01-12T10:03:21.591Z,103080.25
2024-01-12T10:05:51.685Z,103070.97
2024-01-12T10:08:24.246Z,103064.56
2024-01-12T10:10:54.606Z,103068.28
2024-01-12T10:13:24.544Z,103068.28
2024-01-12T10:15:54.441Z,103055.50
2024-01-12T10:18:25.678Z,103042.09
2024-01-12T10:20:55.703Z,103032.41
2024-01-12T10:23:29.340Z,103038.81
2024-01-12T10:26:02.635Z,103029.34
2024-01-12T10:28:33.465Z,103020.88
2024-01-12T10:31:09.046Z,103020.47
2024-01-12T10:33:39.526Z,103023.34
2024-01-12T10:36:15.760Z,103014.91
2024-01-12T10:38:49.344Z,103019.22
2024-01-12T10:41:23.481Z,103028.91
2024-01-12T10:43:58.831Z,103038.22
2024-01-12T10:46:36.748Z,103029.75
2024-01-12T10:49:14.545Z,103024.59
2024-01-12T10:51:56.696Z,103020.88
2024-01-12T10:54:36.130Z,103019.22
2024-01-12T10:57:06.830Z,103018.19
2024-01-12T10:59:37.072Z,103011.56
2024-01-12T11:02:08.083Z,103013.44
2024-01-12T11:04:38.182Z,103003.97
2024-01-12T11:07:10.350Z,103006.22
2024-01-12T11:09:42.973Z,103012.22
2024-01-12T11:12:16.024Z,103001.28
2024-01-12T11:14:46.802Z,103004.34
2024-01-12T11:17:16.868Z,102988.69
2024-01-12T11:19:49.902Z,102993.22
2024-01-12T11:22:19.908Z,102996.50
2024-01-12T11:24:54.178Z,102994.44
2024-01-12T11:27:24.956Z,102993.41
2024-01-12T11:30:01.897Z,102991.97
2024-01-12T11:32:35.317Z,102984.72
2024-01-12T11:35:16.825Z,103000.00
2024-01-12T11:37:48.529Z,103000.00
2024-01-12T11:40:21.045Z,102998.50
2024-01-12T11:42:51.522Z,102998.50
2024-01-12T11:45:22.538Z,102993.97
2024-01-12T11:47:52.549Z,102986.56
2024-01-12T11:50:26.412Z,102980.75
2024-01-12T11:53:00.194Z,102982.63
2024-01-12T11:55:34.115Z,102978.28
2024-01-12T11:58:04.276Z,102978.28
2024-01-12T12:00:34.609Z,102978.88
2024-01-12T12:03:04.536Z,102978.50
2024-01-12T12:05:34.695Z,102974.75
2024-01-12T12:08:06.317Z,102966.28
2024-01-12T12:10:43.844Z,102957.63
2024-01-12T12:13:20.193Z,102952.69
2024-01-12T12:15:50.288Z,102966.94
2024-01-12T12:18:22.578Z,102958.25
2024-01-12T12:20:52.723Z,102954.75
2024-01-12T12:23:22.766Z,102958.06
2024-01-12T12:25:56.741Z,102954.34
2024-01-12T12:28:27.931Z,102948.97
2024-01-12T12:30:58.518Z,102952.25
2024-01-12T12:33:28.973Z,102944.19
2024-01-12T12:36:09.544Z,102941.50
2024-01-12T12:38:40.853Z,102941.50
2024-01-12T12:41:13.463Z,102929.97
2024-01-12T12:43:45.223Z,102930.38
2024-01-12T12:46:15.091Z,102931.22
2024-01-12T12:48:47.276Z,102930.38
2024-01-12T12:51:17.616Z,102934.91
2024-01-12T12:53:47.527Z,102928.53
2024-01-12T12:56:20.136Z,102925.00
2024-01-12T12:58:50.218Z,102908.91
2024-01-12T13:01:20.104Z,102906.44
2024-01-12T13:03:50.421Z,102899.41
2024-01-12T13:06:20.431Z,102901.88
2024-01-12T13:08:50.367Z,102903.75
2024-01-12T13:11:22.894Z,102900.84
2024-01-12T13:13:55.573Z,102896.50
2024-01-12T13:16:25.467Z,102882.28
2024-01-12T13:19:03.622Z,102880.03
2024-01-12T13:21:41.006Z,102881.91
2024-01-12T13:24:11.118Z,102889.13
2024-01-12T13:26:43.691Z,102874.84
2024-01-12T13:29:13.574Z,102877.72
2024-01-12T13:31:44.111Z,102871.31
2024-01-12T13:34:16.953Z,102870.09
2024-01-12T13:36:49.613Z,102863.69
2024-01-12T13:39:19.618Z,102861.81
2024-01-12T13:41:52.397Z,102863.25
2024-01-12T13:44:22.349Z,102846.53
2024-01-12T13:46:52.205Z,102851.09
2024-01-12T13:49:22.331Z,102854.81
2024-01-12T13:51:52.339Z,102859.34
2024-01-12T13:54:22.392Z,102859.75
2024-01-12T13:56:54.889Z,102863.28
2024-01-12T13:59:24.923Z,102863.09
2024-01-12T14:01:54.819Z,102854.41
2024-01-12T14:04:24.973Z,102855.22
2024-01-12T14:06:55.266Z,102858.75
2024-01-12T14:09:25.683Z,102859.75
2024-01-12T14:11:59.289Z,102866.19
2024-01-12T14:14:29.383Z,102865.13
2024-01-12T14:17:01.780Z,102863.28
2024-01-12T14:19:32.091Z,102866.81
2024-01-12T14:22:02.141Z,102865.94
2024-01-12T14:24:31.999Z,102863.50
2024-01-12T14:27:05.580Z,102863.09
2024-01-12T14:29:35.614Z,102858.53
2024-01-12T14:32:05.733Z,102851.91
2024-01-12T14:34:35.668Z,102855.63
2024-01-12T14:37:05.784Z,102859.34
2024-01-12T14:39:35.980Z,102859.34
2024-01-12T14:42:08.667Z,102861.00
2024-01-12T14:44:38.559Z,102857.50
2024-01-12T14:47:09.313Z,102854.81
2024-01-12T14:49:42.562Z,102852.13
2024-01-12T14:52:12.633Z,102853.16
2024-01-12T14:54:45.706Z,102848.84
2024-01-12T14:57:18.239Z,102850.72
2024-01-12T14:59:48.287Z,102860.59
2024-01-12T15:02:18.369Z,102853.56
2024-01-12T15:04:49.211Z,102860.81
2024-01-12T15:07:20.195Z,102860.00
2024-01-12T15:09:50.416Z,102855.66
2024-01-12T15:12:23.399Z,102856.47
2024-01-12T15:14:53.598Z,102860.81
2024-01-12T15:19:53.743Z,102855.44
2024-01-12T15:22:23.641Z,102850.06
2024-01-12T15:24:54.597Z,102844.47
2024-01-12T15:27:27.135Z,102841.63
2024-01-12T15:29:56.998Z,102830.88
2024-01-12T15:32:27.078Z,102832.50
2024-01-12T15:34:57.274Z,102836.44
2024-01-12T15:37:30.220Z,102835.63
2024-01-12T15:40:03.317Z,102833.97
2024-01-12T15:42:42.394Z,102838.28
2024-01-12T15:45:18.815Z,102843.66
2024-01-12T15:47:49.314Z,102842.03
2024-01-12T15:50:19.756Z,102842.47
2024-01-12T15:52:49.986Z,102844.09
2024-01-12T15:55:20.994Z,102827.41
2024-01-12T15:57:54.088Z,102835.22
2024-01-12T16:00:24.813Z,102827.56
2024-01-12T16:02:57.325Z,102828.38
2024-01-12T16:05:27.749Z,102827.38
2024-01-12T16:08:02.294Z,102826.56
2024-01-12T16:10:35.321Z,102827.56
2024-01-12T16:13:09.432Z,102834.59
2024-01-12T16:15:39.720Z,102832.94
2024-01-12T16:18:10.664Z,102822.19
2024-01-12T16:20:41.064Z,102823.25
2024-01-12T16:23:11.401Z,102820.78
2024-01-12T16:25:41.644Z,102826.38
2024-01-12T16:28:17.736Z,102817.28
2024-01-12T16:30:48.796Z,102828.00
2024-01-12T16:33:24.137Z,102822.63
2024-01-12T16:35:54.928Z,102824.28
2024-01-12T16:38:25.429Z,102824.28
2024-01-12T16:40:57.245Z,102836.66
2024-01-12T16:43:55.780Z,102832.09
2024-01-12T16:46:27.372Z,102829.66
2024-01-12T16:48:58.128Z,102828.81
2024-01-12T16:51:45.402Z,102828.44
2024-01-12T16:54:16.613Z,102835.22
2024-01-12T16:56:52.253Z,102835.84
2024-01-12T16:59:25.811Z,102832.09
2024-01-12T17:01:57.177Z,102834.59
2024-01-12T17:04:28.215Z,102826.56
2024-01-12T17:07:05.180Z,102836.25
2024-01-12T17:09:39.501Z,102820.13
2024-01-12T17:12:10.659Z,102817.47
2024-01-12T17:14:44.112Z,102819.09
2024-01-12T17:17:22.868Z,102812.69
2024-01-12T17:20:02.888Z,102809.41
2024-01-12T17:22:34.346Z,102802.41
2024-01-12T17:25:05.843Z,102805.69
2024-01-12T17:27:42.878Z,102804.03
2024-01-12T17:30:49.101Z,102802.81
2024-01-12T17:33:20.161Z,102806.09
2024-01-12T17:35:58.248Z,102808.78
2024-01-12T17:41:39.604Z,102803.41
2024-01-12T17:44:10.591Z,102797.84
2024-01-12T17:46:45.167Z,102790.00
2024-01-12T17:49:18.174Z,102787.94
2024-01-12T17:51:49.661Z,102785.84
2024-01-12T17:54:22.673Z,102773.47
2024-01-12T17:56:53.279Z,102782.56
2024-01-12T17:59:23.504Z,102796.19
2024-01-12T18:01:58.543Z,102799.09
2024-01-12T18:04:30.763Z,102792.91
2024-01-12T18:07:01.283Z,102800.72
2024-01-12T18:09:31.601Z,102807.75
2024-01-12T18:12:06.192Z,102800.31
2024-01-12T18:14:38.303Z,102801.72
2024-01-12T18:17:12.523Z,102790.78
2024-01-12T18:19:43.276Z,102796.78
2024-01-12T18:22:13.668Z,102791.41
2024-01-12T18:24:49.815Z,102792.00
2024-01-12T18:27:21.487Z,102787.22
2024-01-12T18:29:52.042Z,102791.56
2024-01-12T18:32:25.153Z,102796.91
2024-01-12T18:35:00.702Z,102796.31
2024-01-12T18:37:30.963Z,102789.91
2024-01-12T18:40:01.237Z,102792.81
2024-01-12T18:42:31.835Z,102788.28
2024-01-12T18:45:02.202Z,102799.00
2024-01-12T18:47:35.270Z,102800.06
2024-01-12T18:50:07.531Z,102794.09
2024-01-12T18:52:39.309Z,102797.81
2024-01-12T18:55:10.833Z,102801.50
2024-01-12T18:57:41.105Z,102792.44
2024-01-12T19:00:12.909Z,102793.25
2024-01-12T19:02:47.341Z,102790.78
2024-01-12T19:05:18.126Z,102790.59
2024-01-12T19:07:48.364Z,102787.06
2024-01-12T19:10:20.995Z,102793.03
2024-01-12T19:12:59.345Z,102785.59
2024-01-12T19:15:29.679Z,102792.19
2024-01-12T19:18:03.360Z,102787.63
2024-01-12T19:20:35.072Z,102784.13
2024-01-12T19:23:05.842Z,102783.50
2024-01-12T19:25:36.229Z,102778.34
2024-01-12T19:28:06.713Z,102777.16
2024-01-12T19:30:37.019Z,102777.75
2024-01-12T19:33:10.098Z,102773.22
2024-01-12T19:35:42.924Z,102768.06
2024-01-12T19:38:14.058Z,102766.78
2024-01-12T19:40:44.791Z,102766.78
2024-01-12T19:43:15.683Z,102764.34
2024-01-12T19:45:46.051Z,102768.06
2024-01-12T19:48:19.134Z,102765.59
2024-01-12T19:50:52.179Z,102765.59
2024-01-12T19:53:23.386Z,102762.28
2024-01-12T19:55:56.643Z,102760.25
2024-01-12T19:58:26.998Z,102760.25
2024-01-12T20:01:01.586Z,102752.78
2024-01-12T20:03:34.661Z,102743.69
2024-01-12T20:06:05.420Z,102755.25
2024-01-12T20:08:35.766Z,102752.34
2024-01-12T20:11:07.342Z,102756.25
2024-01-12T20:13:37.462Z,102746.09
2024-01-12T20:16:07.853Z,102749.38
2024-01-12T20:18:40.497Z,102747.31
2024-01-12T20:21:11.103Z,102748.97
2024-01-12T20:23:41.138Z,102744.19
2024-01-12T20:26:11.072Z,102738.59
2024-01-12T20:28:40.971Z,102737.34
2024-01-12T20:31:10.999Z,102735.25
2024-01-12T20:33:43.907Z,102740.63
2024-01-12T20:36:14.071Z,102742.50
2024-01-12T20:38:44.658Z,102740.63
2024-01-12T20:41:15.438Z,102739.81
2024-01-12T20:43:45.580Z,102739.00
2024-01-12T20:46:15.465Z,102737.34
2024-01-12T20:48:49.087Z,102736.13
2024-01-12T20:51:19.140Z,102738.22
2024-01-12T20:53:49.273Z,102735.53
2024-01-12T20:56:19.343Z,102727.47
2024-01-12T20:58:49.337Z,102723.75
2024-01-12T21:01:19.389Z,102726.44
2024-01-12T21:03:52.341Z,102725.84
2024-01-12T21:06:22.418Z,102727.91
2024-01-12T21:08:52.348Z,102719.84
2024-01-12T21:11:22.319Z,102720.06
2024-01-12T21:13:52.176Z,102716.34
2024-01-12T21:16:22.211Z,102715.28
2024-01-12T21:18:55.574Z,102711.78
2024-01-12T21:21:25.732Z,102710.97
2024-01-12T21:23:55.731Z,102717.97
2024-01-12T21:26:25.844Z,102706.44
2024-01-12T21:28:55.763Z,102710.16
2024-01-12T21:31:25.683Z,102706.44
2024-01-12T21:33:58.423Z,102701.06
2024-01-12T21:36:28.885Z,102698.19
2024-01-12T21:39:00.272Z,102698.19
2024-01-12T21:41:30.792Z,102701.06
2024-01-12T21:44:00.811Z,102699.00
2024-01-12T21:46:30.777Z,102700.63
2024-01-12T21:49:04.021Z,102694.88
2024-01-12T21:51:34.120Z,102694.88
2024-01-12T21:54:04.126Z,102698.19
2024-01-12T21:56:34.066Z,102695.25
2024-01-12T21:59:04.107Z,102689.31
2024-01-12T22:01:34.049Z,102684.53
2024-01-12T22:04:06.892Z,102684.53
2024-01-12T22:06:36.931Z,102687.22
2024-01-12T22:09:10.091Z,102677.53
2024-01-12T22:11:41.467Z,102674.84
2024-01-12T22:14:11.408Z,102672.75
2024-01-12T22:16:41.367Z,102668.41
2024-01-12T22:19:14.206Z,102667.97
2024-01-12T22:21:44.238Z,102672.28
2024-01-12T22:24:16.935Z,102669.19
2024-01-12T22:26:46.991Z,102658.44
2024-01-12T22:29:17.059Z,102655.97
2024-01-12T22:31:47.006Z,102658.03
2024-01-12T22:34:19.496Z,102646.94
2024-01-12T22:36:49.443Z,102645.31
2024-01-12T22:39:19.418Z,102645.31
2024-01-12T22:41:49.427Z,102644.47
2024-01-12T22:44:21.266Z,102639.94
2024-01-12T22:46:51.444Z,102639.13
2024-01-12T22:49:24.267Z,102638.28
2024-01-12T22:51:54.391Z,102634.56
2024-01-12T22:54:24.539Z,102647.16
2024-01-12T22:56:54.604Z,102631.25
2024-01-12T22:59:24.810Z,102638.28
2024-01-12T23:01:54.710Z,102637.25
2024-01-12T23:04:27.226Z,102626.72
2024-01-12T23:06:57.087Z,102624.88
2024-01-12T23:09:26.997Z,102622.19
2024-01-12T23:12:01.776Z,102621.16
2024-01-12T23:14:31.702Z,102608.75
2024-01-12T23:17:01.664Z,102619.50
2024-01-12T23:19:34.276Z,102608.75
2024-01-12T23:22:04.162Z,102618.47
2024-01-12T23:24:33.991Z,102603.41
2024-01-12T23:27:04.091Z,102603.41
2024-01-12T23:29:38.339Z,102616.81
2024-01-12T23:32:16.309Z,102600.72
2024-01-12T23:34:49.132Z,102591.81
2024-01-12T23:37:19.339Z,102590.41
2024-01-12T23:39:49.555Z,102587.72
2024-01-12T23:42:19.488Z,102582.13
2024-01-12T23:44:49.444Z,102583.56
2024-01-12T23:47:21.696Z,102577.38
2024-01-12T23:49:54.351Z,102572.81
2024-01-12T23:52:24.359Z,102566.41
2024-01-12T23:54:54.336Z,102568.50
2024-01-12T23:57:25.124Z,102568.50
2024-01-12T23:59:55.115Z,102569.31
